createdAt,value
2022-12-08T00:01:44.872Z,0.86
2022-12-08T00:07:06.769Z,0.87
2022-12-08T00:12:12.579Z,0.85
2022-12-08T00:17:20.271Z,0.84
2022-12-08T00:22:23.304Z,0.82
2022-12-08T00:27:26.233Z,0.81
2022-12-08T00:32:29.238Z,0.81
2022-12-08T00:37:32.181Z,0.82
2022-12-08T00:42:35.210Z,0.83
2022-12-08T00:47:38.243Z,0.89
2022-12-08T00:52:41.172Z,0.91
2022-12-08T00:57:44.172Z,0.90
2022-12-08T01:02:47.152Z,0.90
2022-12-08T01:07:50.383Z,0.90
2022-12-08T01:12:53.386Z,0.91
2022-12-08T01:17:56.386Z,0.94
2022-12-08T01:22:59.336Z,0.94
2022-12-08T01:28:02.321Z,0.94
2022-12-08T01:33:05.662Z,0.98
2022-12-08T01:38:08.701Z,1.00
2022-12-08T01:43:21.498Z,1.01
2022-12-08T01:48:27.755Z,1.01
2022-12-08T01:53:33.422Z,1.02
2022-12-08T01:58:42.963Z,1.04
2022-12-08T02:04:02.154Z,1.08
2022-12-08T02:09:07.047Z,1.09
2022-12-08T02:14:14.121Z,1.07
2022-12-08T02:19:52.711Z,1.02
2022-12-08T02:25:10.885Z,0.99
2022-12-08T02:30:58.143Z,0.92
2022-12-08T02:36:25.253Z,0.81
2022-12-08T02:41:53.716Z,0.69
2022-12-08T02:47:05.344Z,0.64
2022-12-08T02:52:14.411Z,0.62
2022-12-08T02:57:48.410Z,0.60
2022-12-08T03:03:25.021Z,0.53
2022-12-08T03:09:14.357Z,0.47
2022-12-08T03:14:18.388Z,0.44
2022-12-08T03:19:27.798Z,0.36
2022-12-08T03:24:39.367Z,0.28
2022-12-08T03:29:42.944Z,0.26
2022-12-08T03:34:48.794Z,0.23
2022-12-08T03:39:51.741Z,0.16
2022-12-08T03:44:54.766Z,0.11
2022-12-08T03:49:57.676Z,0.16
2022-12-08T03:55:00.608Z,0.18
2022-12-08T04:00:06.920Z,0.15
2022-12-08T04:05:10.499Z,0.11
2022-12-08T04:10:13.535Z,0.15
2022-12-08T04:15:16.472Z,0.22
2022-12-08T04:20:19.367Z,0.34
2022-12-08T04:25:22.350Z,0.46
2022-12-08T04:30:25.455Z,0.59
2022-12-08T04:35:28.778Z,0.69
2022-12-08T04:40:32.102Z,0.74
2022-12-08T04:45:35.527Z,0.79
2022-12-08T04:50:42.237Z,0.84
2022-12-08T04:55:45.732Z,0.88
2022-12-08T05:00:49.135Z,0.91
2022-12-08T05:05:52.153Z,0.93
2022-12-08T05:11:03.653Z,0.95
2022-12-08T05:16:14.325Z,0.96
2022-12-08T05:21:17.353Z,0.98
2022-12-08T05:26:20.594Z,0.97
2022-12-08T05:31:23.885Z,0.98
2022-12-08T05:36:26.890Z,1.03
2022-12-08T05:41:30.060Z,1.06
2022-12-08T05:46:33.352Z,1.08
2022-12-08T05:51:36.457Z,1.09
2022-12-08T05:56:39.511Z,1.12
2022-12-08T06:01:42.892Z,1.13
2022-12-08T06:06:45.966Z,1.12
2022-12-08T06:11:48.958Z,1.11
2022-12-08T06:16:51.960Z,1.09
2022-12-08T06:21:54.995Z,1.05
2022-12-08T06:26:57.965Z,1.01
2022-12-08T06:32:00.960Z,1.04
2022-12-08T06:37:04.004Z,1.04
2022-12-08T06:42:25.850Z,1.05
2022-12-08T06:47:28.816Z,1.02
2022-12-08T06:52:32.046Z,1.00
2022-12-08T06:57:35.586Z,0.98
2022-12-08T07:02:39.035Z,0.97
2022-12-08T07:07:42.251Z,1.00
2022-12-08T07:12:45.734Z,1.04
2022-12-08T07:17:49.223Z,1.07
2022-12-08T07:22:53.218Z,1.08
2022-12-08T07:27:56.221Z,1.13
2022-12-08T07:32:59.157Z,1.18
2022-12-08T07:38:02.528Z,1.18
2022-12-08T07:43:05.481Z,1.18
2022-12-08T07:48:08.800Z,1.19
2022-12-08T07:53:12.478Z,1.18
2022-12-08T07:58:15.443Z,1.17
2022-12-08T08:03:18.904Z,1.21
2022-12-08T08:08:21.913Z,1.25
2022-12-08T08:13:24.954Z,1.32
2022-12-08T08:18:27.867Z,1.37
2022-12-08T08:23:31.006Z,1.43
2022-12-08T08:28:34.242Z,1.57
2022-12-08T08:33:37.323Z,1.62
2022-12-08T08:38:40.356Z,1.66
2022-12-08T08:43:43.288Z,1.61
2022-12-08T08:48:46.374Z,1.61
2022-12-08T08:53:49.910Z,1.60
2022-12-08T08:58:54.221Z,1.60
2022-12-08T09:03:57.562Z,1.58
2022-12-08T09:09:01.599Z,1.63
2022-12-08T09:14:04.561Z,1.72
2022-12-08T09:19:07.650Z,1.72
2022-12-08T09:24:15.721Z,1.65
2022-12-08T09:29:18.757Z,1.68
2022-12-08T09:34:21.745Z,1.75
2022-12-08T09:39:25.138Z,1.82
2022-12-08T09:45:12.018Z,1.88
2022-12-08T09:50:23.526Z,1.97
2022-12-08T09:55:53.928Z,1.73
2022-12-08T10:00:57.293Z,1.33
2022-12-08T10:06:39.366Z,1.13
2022-12-08T10:12:17.390Z,1.07
2022-12-08T10:17:29.396Z,1.14
2022-12-08T10:22:38.661Z,1.09
2022-12-08T10:27:44.579Z,1.16
2022-12-08T10:32:54.451Z,1.42
2022-12-08T10:38:04.173Z,1.76
2022-12-08T10:43:22.118Z,2.01
2022-12-08T10:48:31.310Z,2.10
2022-12-08T10:53:49.319Z,2.08
2022-12-08T10:59:13.267Z,1.99
2022-12-08T11:04:23.315Z,2.01
2022-12-08T11:09:48.874Z,2.01
2022-12-08T11:15:03.107Z,1.99
2022-12-08T11:20:08.978Z,2.09
2022-12-08T11:25:25.224Z,2.21
2022-12-08T11:30:35.958Z,2.35
2022-12-08T11:35:46.227Z,2.44
2022-12-08T11:41:15.584Z,2.47
2022-12-08T11:46:31.675Z,2.45
2022-12-08T11:51:42.421Z,2.49
2022-12-08T11:56:50.280Z,2.62
2022-12-08T12:01:53.723Z,2.60
2022-12-08T12:07:40.649Z,2.47
2022-12-08T12:13:10.192Z,2.43
2022-12-08T12:18:38.920Z,2.38
2022-12-08T12:23:49.104Z,2.33
2022-12-08T12:29:00.244Z,2.24
2022-12-08T12:34:16.939Z,2.13
2022-12-08T12:39:30.862Z,2.05
2022-12-08T12:44:33.715Z,1.95
2022-12-08T12:49:39.373Z,1.85
2022-12-08T12:54:51.540Z,1.86
2022-12-08T12:59:55.860Z,1.90
2022-12-08T13:05:26.481Z,1.73
2022-12-08T13:11:00.924Z,1.53
2022-12-08T13:16:18.537Z,1.38
2022-12-08T13:21:31.696Z,1.26
2022-12-08T13:26:44.545Z,1.17
2022-12-08T13:31:56.338Z,1.16
2022-12-08T13:37:11.357Z,1.09
2022-12-08T13:42:42.885Z,1.06
2022-12-08T13:48:30.165Z,1.14
2022-12-08T13:54:16.282Z,1.15
2022-12-08T13:59:34.046Z,1.18
2022-12-08T14:05:09.222Z,1.13
2022-12-08T14:10:03.779Z,1.05
2022-12-08T14:15:08.117Z,1.14
2022-12-08T14:20:46.348Z,1.22
2022-12-08T14:25:57.110Z,1.32
2022-12-08T14:31:01.039Z,1.47
2022-12-08T14:36:04.643Z,1.57
2022-12-08T14:41:12.014Z,1.64
2022-12-08T14:46:23.318Z,1.72
2022-12-08T14:51:33.110Z,1.80
2022-12-08T14:56:51.852Z,1.85
2022-12-08T15:02:15.700Z,1.91
2022-12-08T15:07:27.198Z,1.93
2022-12-08T15:12:31.985Z,1.94
2022-12-08T15:18:18.182Z,1.95
2022-12-08T15:23:31.344Z,1.97
2022-12-08T15:28:35.365Z,1.94
2022-12-08T15:33:39.493Z,1.92
2022-12-08T15:38:44.176Z,1.91
2022-12-08T15:43:47.440Z,1.93
2022-12-08T15:48:54.919Z,1.96
2022-12-08T15:54:00.957Z,1.95
2022-12-08T15:59:03.950Z,1.94
2022-12-08T16:04:47.749Z,1.96
2022-12-08T16:09:38.599Z,1.99
2022-12-08T16:20:16.932Z,2.04
2022-12-08T16:25:22.307Z,2.04
2022-12-08T16:30:26.037Z,2.04
2022-12-08T16:35:29.493Z,2.09
2022-12-08T16:40:32.482Z,2.19
2022-12-08T16:45:41.532Z,2.25
2022-12-08T16:50:47.670Z,2.27
2022-12-08T16:55:50.732Z,2.28
2022-12-08T17:00:53.763Z,2.32
2022-12-08T17:05:56.691Z,2.35
2022-12-08T17:11:08.498Z,2.36
2022-12-08T17:16:19.310Z,2.34
2022-12-08T17:21:22.415Z,2.33
2022-12-08T17:26:25.412Z,2.31
2022-12-08T17:31:31.092Z,2.32
2022-12-08T17:36:34.526Z,2.31
2022-12-08T17:41:37.771Z,2.31
2022-12-08T17:46:45.256Z,2.29
2022-12-08T17:51:55.233Z,2.28
2022-12-08T17:56:59.165Z,2.29
2022-12-08T18:02:02.768Z,2.31
2022-12-08T18:07:06.193Z,2.34
2022-12-08T18:12:09.269Z,2.37
2022-12-08T18:17:12.461Z,2.37
2022-12-08T18:22:16.160Z,2.39
2022-12-08T18:27:19.198Z,2.38
2022-12-08T18:32:23.921Z,2.39
2022-12-08T18:37:27.024Z,2.41
2022-12-08T18:42:30.148Z,2.44
2022-12-08T18:47:40.951Z,2.45
2022-12-08T18:52:45.772Z,2.46
2022-12-08T18:57:48.978Z,2.44
2022-12-08T19:02:52.117Z,2.49
2022-12-08T19:07:55.143Z,2.56
2022-12-08T19:12:58.145Z,2.60
2022-12-08T19:18:01.403Z,2.63
2022-12-08T19:23:04.403Z,2.65
2022-12-08T19:28:07.661Z,2.67
2022-12-08T19:33:10.689Z,2.70
2022-12-08T19:38:13.637Z,2.73
2022-12-08T19:43:39.315Z,2.73
2022-12-08T19:48:42.411Z,2.74
2022-12-08T19:53:47.772Z,2.79
2022-12-08T19:58:51.007Z,2.82
2022-12-08T20:03:54.010Z,2.83
2022-12-08T20:08:56.992Z,2.84
2022-12-08T20:13:59.985Z,2.85
2022-12-08T20:19:03.865Z,2.87
2022-12-08T20:24:07.316Z,2.89
2022-12-08T20:29:10.388Z,2.92
2022-12-08T20:34:19.066Z,2.95
2022-12-08T20:39:22.044Z,2.99
2022-12-08T20:44:25.402Z,2.98
2022-12-08T20:49:34.198Z,2.91
2022-12-08T20:54:38.127Z,2.81
2022-12-08T20:59:41.230Z,2.70
2022-12-08T21:04:44.284Z,2.58
2022-12-08T21:09:47.844Z,2.48
2022-12-08T21:14:51.165Z,2.35
2022-12-08T21:19:54.292Z,2.15
2022-12-08T21:24:57.276Z,2.00
2022-12-08T21:30:00.349Z,1.86
2022-12-08T21:35:03.774Z,1.76
2022-12-08T21:40:08.708Z,1.67
2022-12-08T21:45:18.871Z,1.62
2022-12-08T21:50:22.136Z,1.59
2022-12-08T21:55:25.136Z,1.55
2022-12-08T22:00:28.596Z,1.59
2022-12-08T22:05:32.758Z,1.62
2022-12-08T22:10:35.989Z,1.65
2022-12-08T22:15:39.610Z,1.70
2022-12-08T22:20:44.376Z,1.71
2022-12-08T22:26:02.544Z,1.70
2022-12-08T22:31:21.196Z,1.69
2022-12-08T22:36:26.953Z,1.69
2022-12-08T22:41:30.056Z,1.71
2022-12-08T22:46:33.854Z,1.75
2022-12-08T22:51:37.716Z,1.81
2022-12-08T22:56:40.931Z,1.90
2022-12-08T23:01:44.149Z,1.96
2022-12-08T23:06:47.319Z,2.06
2022-12-08T23:11:50.574Z,2.11
2022-12-08T23:16:53.748Z,2.08
2022-12-08T23:21:56.947Z,2.04
2022-12-08T23:27:00.286Z,1.96
2022-12-08T23:32:03.903Z,1.93
2022-12-08T23:37:07.700Z,1.89
2022-12-08T23:42:11.138Z,1.84
2022-12-08T23:47:14.422Z,1.82
2022-12-08T23:52:17.717Z,1.82
2022-12-08T23:57:21.878Z,1.83
